Delaware, Ohio
Current Conditions -  °F | °C
As of 2:05 PM on Tuesday 27 Jan 2015 (Local Time) from KDLZ Reporting Station
Clear Clear  
Wind Chill: 11°   Ceiling: Unl
Heat Index: 21°   Visibility: 10mi
Dew Point: 12°   Wind: 9mph
Humidity: 68%   Direction: 350°N
Pressure: 30.06"   Gusts: NA
Location:  40.3°N, 83.06°W
Report Text: KDLZ 271905Z AUTO 35008KT 10SM CLR M06/M11 A3006 RMK AO2
Loading
Personal Weather Stations






























Interactive Weather Map New forecast layout! Learn more

10-Day Weather Forecast

Advertisements
Track Severe Weather on mobile